createdAt,value
2019-02-28T00:01:23.311Z,6.33
2019-02-28T00:03:58.062Z,6.31
2019-02-28T00:06:30.941Z,6.23
2019-02-28T00:09:02.527Z,6.18
2019-02-28T00:11:36.083Z,6.13
2019-02-28T00:14:08.971Z,6.10
2019-02-28T00:16:45.640Z,6.08
2019-02-28T00:19:17.202Z,6.03
2019-02-28T00:21:54.630Z,5.98
2019-02-28T00:24:30.026Z,5.91
2019-02-28T00:27:00.641Z,5.91
2019-02-28T00:29:34.430Z,5.93
2019-02-28T00:32:07.757Z,5.88
2019-02-28T00:34:41.566Z,5.88
2019-02-28T00:37:16.297Z,5.78
2019-02-28T00:39:47.891Z,5.77
2019-02-28T00:42:25.562Z,5.74
2019-02-28T00:45:02.365Z,5.73
2019-02-28T00:47:33.248Z,5.72
2019-02-28T00:50:07.567Z,5.75
2019-02-28T00:52:38.221Z,5.72
2019-02-28T00:55:15.513Z,5.68
2019-02-28T00:57:51.057Z,5.64
2019-02-28T01:00:25.352Z,5.62
2019-02-28T01:03:03.273Z,5.60
2019-02-28T01:05:36.650Z,5.57
2019-02-28T01:08:09.475Z,5.55
2019-02-28T01:10:51.149Z,5.52
2019-02-28T01:13:27.305Z,5.43
2019-02-28T01:15:57.642Z,5.35
2019-02-28T01:18:29.207Z,5.25
2019-02-28T01:21:07.590Z,5.28
2019-02-28T01:23:40.584Z,5.20
2019-02-28T01:26:15.880Z,5.18
2019-02-28T01:28:47.475Z,5.13
2019-02-28T01:31:19.002Z,5.12
2019-02-28T01:33:56.068Z,5.09
2019-02-28T01:36:26.812Z,5.08
2019-02-28T01:39:09.007Z,5.03
2019-02-28T01:41:45.275Z,5.02
2019-02-28T01:44:16.340Z,4.93
2019-02-28T01:46:52.085Z,4.90
2019-02-28T01:49:26.024Z,4.79
2019-02-28T01:51:56.896Z,4.75
2019-02-28T01:54:28.514Z,4.70
2019-02-28T01:57:00.028Z,4.72
2019-02-28T01:59:33.854Z,4.60
2019-02-28T02:02:08.338Z,4.60
2019-02-28T02:04:39.880Z,4.55
2019-02-28T02:07:14.427Z,4.58
2019-02-28T02:09:46.918Z,4.47
2019-02-28T02:12:18.642Z,4.48
2019-02-28T02:14:50.177Z,4.51
2019-02-28T02:17:25.019Z,4.48
2019-02-28T02:19:56.841Z,4.39
2019-02-28T02:22:30.745Z,4.44
2019-02-28T02:25:03.158Z,4.40
2019-02-28T02:27:36.952Z,4.33
2019-02-28T02:30:17.111Z,4.41
2019-02-28T02:32:48.645Z,4.41
2019-02-28T02:35:23.007Z,4.36
2019-02-28T02:37:54.723Z,4.28
2019-02-28T02:40:28.632Z,4.30
2019-02-28T02:43:00.481Z,4.26
2019-02-28T02:45:41.947Z,4.30
2019-02-28T02:48:08.683Z,4.23
2019-02-28T02:50:43.168Z,4.23
2019-02-28T02:53:16.656Z,4.23
2019-02-28T02:55:49.478Z,4.20
2019-02-28T02:58:26.887Z,4.24
2019-02-28T03:00:54.298Z,4.20
2019-02-28T03:03:28.608Z,4.12
2019-02-28T03:06:01.258Z,4.04
2019-02-28T03:08:36.305Z,4.00
2019-02-28T03:11:06.192Z,3.97
2019-02-28T03:13:43.686Z,3.99
2019-02-28T03:16:20.439Z,4.01
2019-02-28T03:18:57.997Z,4.00
2019-02-28T03:21:30.099Z,4.00
2019-02-28T03:24:03.493Z,3.97
2019-02-28T03:26:41.602Z,3.92
2019-02-28T03:29:10.759Z,3.90
2019-02-28T03:31:55.100Z,3.90
2019-02-28T03:34:25.103Z,3.89
2019-02-28T03:37:00.812Z,3.87
2019-02-28T03:39:32.648Z,3.87
2019-02-28T03:42:04.228Z,3.83
2019-02-28T03:44:36.054Z,3.80
2019-02-28T03:47:07.900Z,3.78
2019-02-28T03:49:39.732Z,3.78
2019-02-28T03:52:11.287Z,3.77
2019-02-28T03:54:43.111Z,3.77
2019-02-28T03:57:14.958Z,3.68
2019-02-28T03:59:46.514Z,3.65
2019-02-28T04:02:22.244Z,3.71
2019-02-28T04:04:52.483Z,3.66
2019-02-28T04:07:24.346Z,3.67
2019-02-28T04:09:56.174Z,3.69
2019-02-28T04:12:28.007Z,3.68
2019-02-28T04:14:59.956Z,3.66
2019-02-28T04:17:31.783Z,3.59
2019-02-28T04:20:07.494Z,3.60
2019-02-28T04:22:39.347Z,3.49
2019-02-28T04:25:11.242Z,3.47
2019-02-28T04:27:43.118Z,3.40
2019-02-28T04:30:17.439Z,3.40
2019-02-28T04:32:49.003Z,3.44
2019-02-28T04:35:24.341Z,3.41
2019-02-28T04:37:54.390Z,3.36
2019-02-28T04:40:27.017Z,3.32
2019-02-28T04:43:01.408Z,3.35
2019-02-28T04:45:33.356Z,3.38
2019-02-28T04:48:05.428Z,3.34
2019-02-28T04:50:37.283Z,3.41
2019-02-28T04:53:10.100Z,3.41
2019-02-28T04:55:41.961Z,3.43
2019-02-28T04:58:13.808Z,3.40
2019-02-28T05:00:45.641Z,3.38
2019-02-28T05:03:17.502Z,3.38
2019-02-28T05:05:50.955Z,3.32
2019-02-28T05:08:24.552Z,3.25
2019-02-28T05:10:56.837Z,3.20
2019-02-28T05:13:28.717Z,3.22
2019-02-28T05:16:01.997Z,3.13
2019-02-28T05:18:34.931Z,3.18
2019-02-28T05:21:06.761Z,3.14
2019-02-28T05:23:38.597Z,3.15
2019-02-28T05:26:10.184Z,3.19
2019-02-28T05:28:42.033Z,3.17
2019-02-28T05:31:13.853Z,3.17
2019-02-28T05:33:45.680Z,3.17
2019-02-28T05:36:17.547Z,3.19
2019-02-28T05:38:49.400Z,3.18
2019-02-28T05:41:21.254Z,3.12
2019-02-28T05:43:53.083Z,3.13
2019-02-28T05:46:24.971Z,3.12
2019-02-28T05:48:56.865Z,3.12
2019-02-28T05:51:28.715Z,3.12
2019-02-28T05:54:00.559Z,3.13
2019-02-28T05:56:33.144Z,3.08
2019-02-28T05:59:05.989Z,3.08
2019-02-28T06:01:37.866Z,3.12
2019-02-28T06:04:09.799Z,3.07
2019-02-28T06:06:41.771Z,3.10
2019-02-28T06:09:14.553Z,3.06
2019-02-28T06:11:46.766Z,3.04
2019-02-28T06:14:18.592Z,3.05
2019-02-28T06:16:50.448Z,3.07
2019-02-28T06:19:22.261Z,3.08
2019-02-28T06:21:56.441Z,3.11
2019-02-28T06:24:27.632Z,3.11
2019-02-28T06:27:03.738Z,3.14
2019-02-28T06:29:36.786Z,3.14
2019-02-28T06:32:08.154Z,3.25
2019-02-28T06:34:42.224Z,3.39
2019-02-28T06:37:15.404Z,3.56
2019-02-28T06:39:47.237Z,3.69
2019-02-28T06:42:19.144Z,3.76
2019-02-28T06:44:50.991Z,3.86
2019-02-28T06:47:22.833Z,3.98
2019-02-28T06:49:54.667Z,4.12
2019-02-28T06:52:29.008Z,4.23
2019-02-28T06:55:00.919Z,4.44
2019-02-28T06:57:33.115Z,4.66
2019-02-28T07:00:10.388Z,4.88
2019-02-28T07:02:44.501Z,5.07
2019-02-28T07:05:24.273Z,5.32
2019-02-28T07:07:54.785Z,5.54
2019-02-28T07:10:32.546Z,5.67
2019-02-28T07:13:05.810Z,5.91
2019-02-28T07:15:37.688Z,6.01
2019-02-28T07:18:12.460Z,6.11
2019-02-28T07:20:44.050Z,6.27
2019-02-28T07:23:17.472Z,6.44
2019-02-28T07:25:52.414Z,6.59
2019-02-28T07:28:24.098Z,6.70
2019-02-28T07:30:58.021Z,6.82
2019-02-28T07:33:32.753Z,7.03
2019-02-28T07:36:09.655Z,7.24
2019-02-28T07:38:44.426Z,7.45
2019-02-28T07:41:20.321Z,7.59
2019-02-28T07:43:53.872Z,7.73
2019-02-28T07:46:25.431Z,7.94
2019-02-28T07:49:00.922Z,8.06
2019-02-28T07:51:33.219Z,8.17
2019-02-28T07:54:06.356Z,8.38
2019-02-28T07:56:43.145Z,8.58
2019-02-28T07:59:20.039Z,8.80
2019-02-28T08:01:51.651Z,9.00
2019-02-28T08:04:23.217Z,9.24
2019-02-28T08:06:57.933Z,9.40
2019-02-28T08:09:31.529Z,9.51
2019-02-28T08:12:03.100Z,9.76
2019-02-28T08:14:37.714Z,9.96
2019-02-28T08:17:09.971Z,10.17
2019-02-28T08:19:41.650Z,10.39
2019-02-28T08:22:16.042Z,10.72
2019-02-28T08:24:49.827Z,10.94
2019-02-28T08:27:25.445Z,11.23
2019-02-28T08:29:57.897Z,11.48
2019-02-28T08:32:29.509Z,11.67
2019-02-28T08:35:02.743Z,11.89
2019-02-28T08:37:37.901Z,12.19
2019-02-28T08:40:19.361Z,12.37
2019-02-28T08:42:51.017Z,12.48
2019-02-28T08:45:23.655Z,12.60
2019-02-28T08:47:56.993Z,12.82
2019-02-28T08:50:31.912Z,13.01
2019-02-28T08:53:03.598Z,13.21
2019-02-28T08:55:39.470Z,13.38
2019-02-28T08:58:13.141Z,13.45
2019-02-28T09:00:44.746Z,13.55
2019-02-28T09:03:17.374Z,13.71
2019-02-28T09:05:54.705Z,13.83
2019-02-28T09:08:29.071Z,13.99
2019-02-28T09:11:00.678Z,14.14
2019-02-28T09:13:34.611Z,14.14
2019-02-28T09:16:06.426Z,14.27
2019-02-28T09:18:40.782Z,14.38
2019-02-28T09:21:15.389Z,14.61
2019-02-28T09:23:51.917Z,14.77
2019-02-28T09:26:28.180Z,14.91
2019-02-28T09:29:02.500Z,15.05
2019-02-28T09:31:38.683Z,15.17
2019-02-28T09:34:09.298Z,15.32
2019-02-28T09:36:44.096Z,15.42
2019-02-28T09:39:16.304Z,15.55
2019-02-28T09:41:48.953Z,15.72
2019-02-28T09:44:21.837Z,15.82
2019-02-28T09:46:55.705Z,15.86
2019-02-28T09:49:30.107Z,16.00
2019-02-28T09:52:03.274Z,16.17
2019-02-28T09:54:34.936Z,16.21
2019-02-28T09:57:06.775Z,16.34
2019-02-28T09:59:42.246Z,16.48
2019-02-28T10:02:13.844Z,16.63
2019-02-28T10:04:47.171Z,16.78
2019-02-28T10:07:23.367Z,16.82
2019-02-28T10:09:56.768Z,17.00
2019-02-28T10:12:28.346Z,16.94
2019-02-28T10:15:00.635Z,17.01
2019-02-28T10:17:33.597Z,17.16
2019-02-28T10:20:08.022Z,17.34
2019-02-28T10:22:39.605Z,17.40
2019-02-28T10:25:12.700Z,17.55
2019-02-28T10:27:46.771Z,17.68
2019-02-28T10:30:31.285Z,17.74
2019-02-28T10:32:59.791Z,17.79
2019-02-28T10:35:33.488Z,17.79
2019-02-28T10:38:04.655Z,17.72
2019-02-28T10:40:38.755Z,17.83
2019-02-28T10:43:15.369Z,17.73
2019-02-28T10:45:46.453Z,17.71
2019-02-28T10:48:21.011Z,17.66
2019-02-28T10:50:52.291Z,17.78
2019-02-28T10:53:23.855Z,17.93
2019-02-28T10:55:57.950Z,17.98
2019-02-28T10:58:30.398Z,17.83
2019-02-28T11:01:07.714Z,17.81
2019-02-28T11:03:35.289Z,17.93
2019-02-28T11:06:06.876Z,17.97
2019-02-28T11:08:38.438Z,17.99
2019-02-28T11:11:10.521Z,18.01
2019-02-28T11:13:42.860Z,18.13
2019-02-28T11:16:14.464Z,18.21
2019-02-28T11:18:46.107Z,18.29
2019-02-28T11:21:17.862Z,18.25
2019-02-28T11:23:50.256Z,18.26
2019-02-28T11:26:21.878Z,18.23
2019-02-28T11:28:53.626Z,18.27
2019-02-28T11:31:25.809Z,18.30
2019-02-28T11:33:57.594Z,18.23
2019-02-28T11:36:30.466Z,18.15
2019-02-28T11:39:05.842Z,18.26
2019-02-28T11:41:38.770Z,18.22
2019-02-28T11:44:11.985Z,18.10
2019-02-28T11:46:44.510Z,18.10
2019-02-28T11:49:16.094Z,17.98
2019-02-28T11:51:49.459Z,17.91
2019-02-28T11:54:22.448Z,17.90
2019-02-28T11:56:54.031Z,17.96
2019-02-28T11:59:25.600Z,18.09
2019-02-28T12:01:59.925Z,18.19
2019-02-28T12:04:33.101Z,18.28
2019-02-28T12:07:06.389Z,18.30
2019-02-28T12:09:41.876Z,18.32
2019-02-28T12:12:13.450Z,18.31
2019-02-28T12:14:45.154Z,18.15
2019-02-28T12:17:19.768Z,18.07
2019-02-28T12:19:51.400Z,18.08
2019-02-28T12:22:24.327Z,18.25
2019-02-28T12:24:58.586Z,18.43
2019-02-28T12:27:30.385Z,18.61
2019-02-28T12:30:01.946Z,18.65
2019-02-28T12:32:33.610Z,18.54
2019-02-28T12:35:08.521Z,18.45
2019-02-28T12:37:40.137Z,18.39
2019-02-28T12:40:21.452Z,18.35
2019-02-28T12:42:55.125Z,18.36
2019-02-28T12:45:30.487Z,18.57
2019-02-28T12:48:04.563Z,18.53
2019-02-28T12:50:36.126Z,18.46
2019-02-28T12:53:07.760Z,18.53
2019-02-28T12:55:40.920Z,18.50
2019-02-28T12:58:13.793Z,18.64
2019-02-28T13:00:45.847Z,18.75
2019-02-28T13:03:20.059Z,18.74
2019-02-28T13:05:50.823Z,18.74
2019-02-28T13:08:25.484Z,18.66
2019-02-28T13:11:03.134Z,18.75
2019-02-28T13:13:35.358Z,18.76
2019-02-28T13:16:09.245Z,18.83
2019-02-28T13:18:43.587Z,18.88
2019-02-28T13:21:15.234Z,18.85
2019-02-28T13:23:46.803Z,18.74
2019-02-28T13:26:18.386Z,18.69
2019-02-28T13:28:49.969Z,18.61
2019-02-28T13:31:27.064Z,18.60
2019-02-28T13:34:08.599Z,18.60
2019-02-28T13:36:40.225Z,18.61
2019-02-28T13:39:11.907Z,18.65
2019-02-28T13:41:43.497Z,18.65
2019-02-28T13:44:15.093Z,18.67
2019-02-28T13:46:46.662Z,18.69
2019-02-28T13:49:19.904Z,18.73
2019-02-28T13:51:54.593Z,18.73
2019-02-28T13:54:33.995Z,18.71
2019-02-28T13:57:09.687Z,18.75
2019-02-28T13:59:38.949Z,18.78
2019-02-28T14:02:13.613Z,18.84
2019-02-28T14:04:46.241Z,18.84
2019-02-28T14:07:21.638Z,18.82
2019-02-28T14:09:58.147Z,18.80
2019-02-28T14:12:28.832Z,18.74
2019-02-28T14:15:15.438Z,18.69
2019-02-28T14:17:47.484Z,18.69
2019-02-28T14:20:20.585Z,18.69
2019-02-28T14:22:58.417Z,18.70
2019-02-28T14:25:32.278Z,18.70
2019-02-28T14:28:04.171Z,18.71
2019-02-28T14:30:35.791Z,18.73
2019-02-28T14:33:07.593Z,18.72
2019-02-28T14:35:41.189Z,18.68
2019-02-28T14:38:15.482Z,18.68
2019-02-28T14:40:52.783Z,18.66
2019-02-28T14:43:28.514Z,18.71
2019-02-28T14:46:10.187Z,18.73
2019-02-28T14:48:44.472Z,18.71
2019-02-28T14:51:16.061Z,18.72
2019-02-28T14:53:50.103Z,18.68
2019-02-28T14:56:26.635Z,18.65
2019-02-28T14:58:58.327Z,18.63
2019-02-28T15:01:29.920Z,18.62
2019-02-28T15:04:02.769Z,18.60
2019-02-28T15:06:37.065Z,18.60
2019-02-28T15:09:19.254Z,18.60
2019-02-28T15:11:52.333Z,18.58
2019-02-28T15:14:28.901Z,18.57
2019-02-28T15:17:02.037Z,18.58
2019-02-28T15:19:33.791Z,18.56
2019-02-28T15:22:05.519Z,18.56
2019-02-28T15:24:40.536Z,18.54
2019-02-28T15:27:14.776Z,18.48
2019-02-28T15:29:46.372Z,18.47
2019-02-28T15:32:20.748Z,18.48
2019-02-28T15:34:53.619Z,18.41
2019-02-28T15:37:25.352Z,18.37
2019-02-28T15:39:56.943Z,18.34
2019-02-28T15:42:28.567Z,18.30
2019-02-28T15:45:03.925Z,18.28
2019-02-28T15:47:35.479Z,18.25
2019-02-28T15:50:08.608Z,18.21
2019-02-28T15:52:40.186Z,18.13
2019-02-28T15:55:13.094Z,18.07
2019-02-28T15:57:45.138Z,18.02
2019-02-28T16:00:22.075Z,17.99
2019-02-28T16:02:59.389Z,17.96
2019-02-28T16:05:31.005Z,17.96
2019-02-28T16:08:08.808Z,17.85
2019-02-28T16:10:36.122Z,17.81
2019-02-28T16:13:08.739Z,17.69
2019-02-28T16:15:46.353Z,17.58
2019-02-28T16:18:17.079Z,17.47
2019-02-28T16:20:50.916Z,17.29
2019-02-28T16:23:27.567Z,17.17
2019-02-28T16:26:00.258Z,17.06
2019-02-28T16:28:32.900Z,17.02
2019-02-28T16:31:06.415Z,16.94
2019-02-28T16:33:42.100Z,16.91
2019-02-28T16:36:15.930Z,16.80
2019-02-28T16:38:50.066Z,16.70
2019-02-28T16:41:23.506Z,16.58
2019-02-28T16:43:55.535Z,16.52
2019-02-28T16:46:30.161Z,16.47
2019-02-28T16:49:07.413Z,16.40
2019-02-28T16:51:39.560Z,16.34
2019-02-28T16:54:13.355Z,16.32
2019-02-28T16:56:46.602Z,16.23
2019-02-28T16:59:19.264Z,16.18
2019-02-28T17:01:54.768Z,16.08
2019-02-28T17:04:25.293Z,16.14
2019-02-28T17:06:59.890Z,16.00
2019-02-28T17:09:51.802Z,15.86
2019-02-28T17:12:54.124Z,15.87
2019-02-28T17:15:42.913Z,15.91
2019-02-28T17:18:21.581Z,15.86
2019-02-28T17:21:01.233Z,15.72
2019-02-28T17:23:33.686Z,15.63
2019-02-28T17:26:11.692Z,15.59
2019-02-28T17:28:49.749Z,15.58
2019-02-28T17:31:55.323Z,15.53
2019-02-28T17:34:26.896Z,15.44
2019-02-28T17:37:01.564Z,15.37
2019-02-28T17:39:34.767Z,15.26
2019-02-28T17:42:14.805Z,15.32
2019-02-28T17:45:25.961Z,15.14
2019-02-28T17:48:40.260Z,15.07
2019-02-28T17:51:39.797Z,14.95
2019-02-28T17:55:24.020Z,14.91
2019-02-28T17:58:38.816Z,14.74
2019-02-28T18:02:01.543Z,14.79
2019-02-28T18:05:38.765Z,14.63
2019-02-28T18:08:37.766Z,14.50
2019-02-28T18:12:31.458Z,14.44
2019-02-28T18:15:47.359Z,14.37
2019-02-28T18:18:59.794Z,14.36
2019-02-28T18:22:25.853Z,14.28
2019-02-28T18:25:41.501Z,14.20
2019-02-28T18:28:58.029Z,14.09
2019-02-28T18:31:30.783Z,14.01
2019-02-28T18:34:10.072Z,13.93
2019-02-28T18:36:43.548Z,13.89
2019-02-28T18:39:16.613Z,13.78
2019-02-28T18:41:52.818Z,13.76
2019-02-28T18:44:24.482Z,13.70
2019-02-28T18:46:57.178Z,13.64
2019-02-28T18:49:32.110Z,13.59
2019-02-28T18:52:03.730Z,13.62
2019-02-28T18:54:35.405Z,13.60
2019-02-28T18:57:07.027Z,13.55
2019-02-28T18:59:38.633Z,13.51
2019-02-28T19:02:10.277Z,13.55
2019-02-28T19:04:41.927Z,13.58
2019-02-28T19:07:14.703Z,13.53
2019-02-28T19:09:50.334Z,13.48
2019-02-28T19:12:23.903Z,13.49
2019-02-28T19:14:56.677Z,13.53
2019-02-28T19:17:28.354Z,13.44
2019-02-28T19:20:01.044Z,13.49
2019-02-28T19:22:32.895Z,13.45
2019-02-28T19:25:04.845Z,13.45
2019-02-28T19:27:40.144Z,13.47
2019-02-28T19:30:14.029Z,13.40
2019-02-28T19:32:47.281Z,13.42
2019-02-28T19:35:19.001Z,13.41
2019-02-28T19:37:50.570Z,13.34
2019-02-28T19:40:22.187Z,13.35
2019-02-28T19:42:53.746Z,13.29
2019-02-28T19:45:25.612Z,13.27
2019-02-28T19:47:57.170Z,13.36
2019-02-28T19:50:28.802Z,13.28
2019-02-28T19:53:00.438Z,13.29
2019-02-28T19:55:32.035Z,13.29
2019-02-28T19:58:03.719Z,13.26
2019-02-28T20:00:35.325Z,13.29
2019-02-28T20:03:06.913Z,13.29
2019-02-28T20:05:38.749Z,13.23
2019-02-28T20:08:10.338Z,13.23
2019-02-28T20:10:41.908Z,13.13
2019-02-28T20:13:13.503Z,13.15
2019-02-28T20:15:45.165Z,13.08
2019-02-28T20:18:17.206Z,13.07
2019-02-28T20:20:48.814Z,13.06
2019-02-28T20:23:20.399Z,13.07
2019-02-28T20:25:52.098Z,13.02
2019-02-28T20:28:23.769Z,12.99
2019-02-28T20:30:55.463Z,12.91
2019-02-28T20:33:27.271Z,12.86
2019-02-28T20:35:58.934Z,12.85
2019-02-28T20:38:30.516Z,12.78
2019-02-28T20:41:02.131Z,12.74
2019-02-28T20:43:33.834Z,12.64
2019-02-28T20:46:05.516Z,12.59
2019-02-28T20:48:37.297Z,12.59
2019-02-28T20:51:09.056Z,12.53
2019-02-28T20:53:40.976Z,12.57
2019-02-28T20:56:12.680Z,12.59
2019-02-28T20:58:44.363Z,12.60
2019-02-28T21:01:15.948Z,12.60
2019-02-28T21:03:47.675Z,12.62
2019-02-28T21:06:19.365Z,12.68
2019-02-28T21:08:50.961Z,12.66
2019-02-28T21:11:22.662Z,12.68
2019-02-28T21:13:54.364Z,12.66
2019-02-28T21:16:26.044Z,12.60
2019-02-28T21:18:58.272Z,12.63
2019-02-28T21:21:31.108Z,12.65
2019-02-28T21:24:02.721Z,12.61
2019-02-28T21:26:34.304Z,12.65
2019-02-28T21:29:05.897Z,12.71
2019-02-28T21:31:37.627Z,12.77
2019-02-28T21:34:09.365Z,12.73
2019-02-28T21:36:41.240Z,12.68
2019-02-28T21:39:13.162Z,12.67
2019-02-28T21:41:46.428Z,12.67
2019-02-28T21:44:18.229Z,12.68
2019-02-28T21:46:49.848Z,12.72
2019-02-28T21:49:21.425Z,12.69
2019-02-28T21:51:53.024Z,12.68
2019-02-28T21:54:24.671Z,12.68
2019-02-28T21:56:56.311Z,12.61
2019-02-28T21:59:29.535Z,12.55
2019-02-28T22:02:01.203Z,12.41
2019-02-28T22:04:32.849Z,12.43
2019-02-28T22:07:04.556Z,12.51
2019-02-28T22:09:36.172Z,12.51
2019-02-28T22:12:07.864Z,12.52
2019-02-28T22:14:39.453Z,12.55
2019-02-28T22:17:11.056Z,12.58
2019-02-28T22:19:42.665Z,12.61
2019-02-28T22:22:14.268Z,12.63
2019-02-28T22:24:45.848Z,12.67
2019-02-28T22:27:17.466Z,12.69
2019-02-28T22:29:49.021Z,12.72
2019-02-28T22:32:24.808Z,12.74
2019-02-28T22:35:04.520Z,12.76
2019-02-28T22:37:36.131Z,12.78
2019-02-28T22:40:08.032Z,12.75
2019-02-28T22:42:39.679Z,12.72
2019-02-28T22:45:11.375Z,12.74
2019-02-28T22:47:42.970Z,12.77
2019-02-28T22:50:14.544Z,12.72
2019-02-28T22:52:46.147Z,12.70
2019-02-28T22:55:17.714Z,12.66
2019-02-28T22:57:49.292Z,12.62
2019-02-28T23:00:46.924Z,12.64
2019-02-28T23:03:19.751Z,12.55
2019-02-28T23:05:51.311Z,12.48
2019-02-28T23:08:22.896Z,12.39
2019-02-28T23:10:54.501Z,12.30
2019-02-28T23:13:26.087Z,12.32
2019-02-28T23:15:57.739Z,12.22
2019-02-28T23:18:29.330Z,12.21
2019-02-28T23:21:00.883Z,12.23
2019-02-28T23:23:32.459Z,12.19
2019-02-28T23:26:16.900Z,12.04
2019-02-28T23:29:04.777Z,11.92
2019-02-28T23:32:32.596Z,11.84
2019-02-28T23:35:04.782Z,11.82
2019-02-28T23:37:36.382Z,11.72
2019-02-28T23:40:08.455Z,11.67
2019-02-28T23:42:40.075Z,11.51
2019-02-28T23:45:11.931Z,11.25
2019-02-28T23:47:43.529Z,11.13
2019-02-28T23:50:15.092Z,11.10
2019-02-28T23:52:46.661Z,11.05
2019-02-28T23:55:18.238Z,10.91
2019-02-28T23:57:49.791Z,11.02
